createdAt,value
2024-02-03T00:01:51.688Z,18.13
2024-02-03T00:04:18.715Z,18.00
2024-02-03T00:06:45.785Z,18.45
2024-02-03T00:09:12.803Z,18.55
2024-02-03T00:11:40.009Z,18.83
2024-02-03T00:14:07.140Z,19.05
2024-02-03T00:16:34.041Z,17.90
2024-02-03T00:19:01.026Z,18.70
2024-02-03T00:21:27.973Z,17.35
2024-02-03T00:23:54.899Z,17.58
2024-02-03T00:26:21.847Z,18.90
2024-02-03T00:28:50.916Z,19.75
2024-02-03T00:31:17.903Z,19.60
2024-02-03T00:33:44.938Z,18.40
2024-02-03T00:36:24.712Z,17.48
2024-02-03T00:38:51.608Z,18.90
2024-02-03T00:41:18.796Z,18.00
2024-02-03T00:43:45.670Z,19.42
2024-02-03T00:46:12.802Z,20.02
2024-02-03T00:48:40.004Z,19.80
2024-02-03T00:51:11.043Z,21.00
2024-02-03T00:53:38.050Z,20.63
2024-02-03T00:56:05.570Z,23.88
2024-02-03T00:58:32.559Z,23.77
2024-02-03T01:00:59.629Z,22.35
2024-02-03T01:03:26.652Z,21.60
2024-02-03T01:05:53.992Z,21.52
2024-02-03T01:08:21.171Z,20.90
2024-02-03T01:10:48.356Z,19.58
2024-02-03T01:13:15.472Z,19.08
2024-02-03T01:15:42.364Z,18.92
2024-02-03T01:18:09.413Z,18.13
2024-02-03T01:20:36.419Z,18.38
2024-02-03T01:23:03.329Z,19.45
2024-02-03T01:25:30.189Z,18.70
2024-02-03T01:27:57.049Z,18.35
2024-02-03T01:30:23.917Z,17.77
2024-02-03T01:32:50.818Z,18.15
2024-02-03T01:35:17.714Z,18.02
2024-02-03T01:37:44.602Z,18.63
2024-02-03T01:40:14.116Z,17.52
2024-02-03T01:42:41.155Z,17.67
2024-02-03T01:45:08.581Z,17.88
2024-02-03T01:47:35.712Z,16.85
2024-02-03T01:50:05.617Z,16.00
2024-02-03T01:52:34.022Z,16.65
2024-02-03T01:55:00.949Z,16.88
2024-02-03T01:57:30.942Z,16.50
2024-02-03T01:59:58.188Z,17.23
2024-02-03T02:02:25.244Z,16.73
2024-02-03T02:04:52.213Z,18.65
2024-02-03T02:07:21.753Z,16.50
2024-02-03T02:09:49.440Z,17.13
2024-02-03T02:12:16.437Z,15.93
2024-02-03T02:14:43.403Z,16.27
2024-02-03T02:17:10.277Z,16.42
2024-02-03T02:19:37.286Z,15.55
2024-02-03T02:22:04.438Z,16.42
2024-02-03T02:24:31.287Z,15.07
2024-02-03T02:26:58.214Z,15.75
2024-02-03T02:29:25.084Z,16.42
2024-02-03T02:31:52.356Z,15.50
2024-02-03T02:34:19.269Z,16.10
2024-02-03T02:36:46.519Z,15.70
2024-02-03T02:39:13.465Z,15.25
2024-02-03T02:41:40.348Z,14.50
2024-02-03T02:44:07.196Z,16.23
2024-02-03T02:46:34.395Z,14.40
2024-02-03T02:49:03.006Z,15.43
2024-02-03T02:51:30.050Z,15.27
2024-02-03T02:53:56.910Z,15.07
2024-02-03T02:56:23.781Z,14.65
2024-02-03T02:58:50.637Z,15.45
2024-02-03T03:01:20.489Z,14.70
2024-02-03T03:03:47.597Z,15.25
2024-02-03T03:06:14.832Z,16.23
2024-02-03T03:08:41.710Z,14.57
2024-02-03T03:11:10.640Z,15.45
2024-02-03T03:13:37.518Z,15.70
2024-02-03T03:16:04.953Z,15.13
2024-02-03T03:18:31.961Z,15.23
2024-02-03T03:21:00.066Z,16.52
2024-02-03T03:23:26.982Z,15.50
2024-02-03T03:25:57.670Z,15.75
2024-02-03T03:28:24.456Z,16.70
2024-02-03T03:30:51.398Z,15.07
2024-02-03T03:33:18.360Z,16.17
2024-02-03T03:35:45.315Z,16.10
2024-02-03T03:38:14.994Z,16.17
2024-02-03T03:40:41.791Z,15.38
2024-02-03T03:43:08.593Z,15.25
2024-02-03T03:45:35.725Z,15.38
2024-02-03T03:48:02.787Z,15.00
2024-02-03T03:50:29.588Z,15.52
2024-02-03T03:52:56.403Z,15.18
2024-02-03T03:55:23.199Z,14.82
2024-02-03T03:57:50.130Z,14.60
2024-02-03T04:00:17.985Z,14.82
2024-02-03T04:02:44.816Z,15.13
2024-02-03T04:05:11.577Z,14.95
2024-02-03T04:07:38.472Z,15.80
2024-02-03T04:10:05.659Z,15.52
2024-02-03T04:12:32.666Z,14.02
2024-02-03T04:14:59.704Z,15.55
2024-02-03T04:17:26.603Z,14.50
2024-02-03T04:19:53.633Z,14.07
2024-02-03T04:22:21.138Z,14.55
2024-02-03T04:24:47.973Z,13.88
2024-02-03T04:27:14.876Z,12.70
2024-02-03T04:29:41.973Z,13.75
2024-02-03T04:32:09.072Z,13.48
2024-02-03T04:34:36.064Z,14.48
2024-02-03T04:37:02.974Z,12.88
2024-02-03T04:39:30.564Z,13.00
2024-02-03T04:41:57.693Z,13.48
2024-02-03T04:44:24.477Z,12.27
2024-02-03T04:46:51.675Z,13.02
2024-02-03T04:49:18.694Z,11.82
2024-02-03T04:51:45.655Z,11.57
2024-02-03T04:54:13.494Z,12.20
2024-02-03T04:56:40.316Z,11.98
2024-02-03T04:59:07.126Z,12.13
2024-02-03T05:01:35.807Z,11.80
2024-02-03T05:04:02.929Z,12.80
2024-02-03T05:06:29.913Z,11.98
2024-02-03T05:08:59.993Z,12.32
2024-02-03T05:11:27.156Z,11.70
2024-02-03T05:13:54.171Z,11.82
2024-02-03T05:16:20.930Z,11.77
2024-02-03T05:18:47.874Z,11.45
2024-02-03T05:21:15.572Z,12.10
2024-02-03T05:23:42.469Z,11.75
2024-02-03T05:26:09.981Z,11.00
2024-02-03T05:28:36.812Z,11.02
2024-02-03T05:31:03.673Z,11.43
2024-02-03T05:33:31.942Z,10.40
2024-02-03T05:35:59.298Z,11.50
2024-02-03T05:38:26.182Z,11.23
2024-02-03T05:40:53.327Z,12.02
2024-02-03T05:43:20.108Z,11.27
2024-02-03T05:45:46.961Z,11.05
2024-02-03T05:48:13.944Z,10.90
2024-02-03T05:50:40.773Z,11.05
2024-02-03T05:53:08.952Z,10.65
2024-02-03T05:55:35.919Z,10.60
2024-02-03T05:58:02.804Z,10.90
2024-02-03T06:00:29.685Z,11.48
2024-02-03T06:03:00.262Z,11.32
2024-02-03T06:05:27.389Z,10.57
2024-02-03T06:07:54.293Z,11.85
2024-02-03T06:10:21.471Z,12.90
2024-02-03T06:12:48.368Z,13.10
2024-02-03T06:15:15.298Z,13.27
2024-02-03T06:17:42.284Z,13.07
2024-02-03T06:20:10.023Z,11.27
2024-02-03T06:22:36.959Z,11.60
2024-02-03T06:25:03.962Z,11.90
2024-02-03T06:27:30.791Z,15.07
2024-02-03T06:29:57.587Z,14.60
2024-02-03T06:32:24.506Z,13.15
2024-02-03T06:34:51.624Z,14.13
2024-02-03T06:37:18.492Z,14.48
2024-02-03T06:39:45.336Z,16.42
2024-02-03T06:42:12.332Z,16.27
2024-02-03T06:44:39.155Z,17.90
2024-02-03T06:47:06.150Z,15.13
2024-02-03T06:49:33.073Z,15.13
2024-02-03T06:52:00.225Z,15.27
2024-02-03T06:54:27.187Z,13.18
2024-02-03T06:56:54.097Z,14.40
2024-02-03T06:59:20.971Z,13.30
2024-02-03T07:01:47.824Z,12.18
2024-02-03T07:04:15.064Z,12.68
2024-02-03T07:06:42.009Z,12.10
2024-02-03T07:09:09.627Z,12.50
2024-02-03T07:11:36.516Z,12.57
2024-02-03T07:14:03.770Z,11.98
2024-02-03T07:16:30.587Z,11.00
2024-02-03T07:18:58.797Z,11.32
2024-02-03T07:21:25.808Z,10.73
2024-02-03T07:23:52.785Z,11.15
2024-02-03T07:26:19.621Z,10.85
2024-02-03T07:28:46.421Z,11.23
2024-02-03T07:31:13.274Z,11.23
2024-02-03T07:33:40.192Z,11.85
2024-02-03T07:36:07.510Z,13.80
2024-02-03T07:38:34.331Z,12.10
2024-02-03T07:41:01.190Z,11.18
2024-02-03T07:43:28.090Z,12.65
2024-02-03T07:45:54.948Z,12.00
2024-02-03T07:48:21.979Z,11.35
2024-02-03T07:50:48.923Z,10.93
2024-02-03T07:53:15.738Z,10.07
2024-02-03T07:55:42.539Z,9.32
2024-02-03T07:58:09.450Z,9.88
2024-02-03T08:00:36.424Z,9.70
2024-02-03T08:03:03.599Z,9.15
2024-02-03T08:05:31.093Z,8.50
2024-02-03T08:07:57.911Z,9.45
2024-02-03T08:10:24.694Z,8.57
2024-02-03T08:12:51.976Z,8.80
2024-02-03T08:15:19.556Z,9.13
2024-02-03T08:17:46.757Z,9.77
2024-02-03T08:20:13.762Z,9.95
2024-02-03T08:22:40.631Z,8.70
2024-02-03T08:25:08.272Z,8.68
2024-02-03T08:27:35.205Z,8.57
2024-02-03T08:30:02.049Z,8.68
2024-02-03T08:32:28.947Z,8.93
2024-02-03T08:37:25.757Z,7.60
2024-02-03T08:39:52.622Z,7.60
2024-02-03T08:42:20.999Z,6.97
2024-02-03T08:44:47.982Z,7.60
2024-02-03T08:47:15.731Z,7.93
2024-02-03T08:49:53.346Z,6.95
2024-02-03T08:52:21.090Z,7.25
2024-02-03T08:54:47.988Z,6.85
2024-02-03T08:57:14.944Z,7.47
2024-02-03T08:59:41.844Z,8.15
2024-02-03T09:02:08.678Z,7.65
2024-02-03T09:04:35.585Z,7.45
2024-02-03T09:07:02.437Z,7.45
2024-02-03T09:09:29.241Z,7.18
2024-02-03T09:11:56.088Z,6.97
2024-02-03T09:14:22.948Z,7.03
2024-02-03T09:16:49.755Z,7.05
2024-02-03T09:19:16.822Z,7.00
2024-02-03T09:21:43.884Z,7.30
2024-02-03T09:24:10.965Z,7.57
2024-02-03T09:26:41.165Z,7.50
2024-02-03T09:29:11.338Z,7.65
2024-02-03T09:31:38.185Z,7.90
2024-02-03T09:34:06.319Z,9.55
2024-02-03T09:36:33.776Z,9.73
2024-02-03T09:39:01.070Z,9.88
2024-02-03T09:41:30.232Z,8.18
2024-02-03T09:43:59.418Z,7.80
2024-02-03T09:46:26.389Z,8.38
2024-02-03T09:48:53.532Z,8.00
2024-02-03T09:51:21.067Z,8.32
2024-02-03T09:53:48.506Z,8.18
2024-02-03T09:56:15.341Z,8.35
2024-02-03T09:58:42.869Z,8.18
2024-02-03T10:01:10.040Z,8.68
2024-02-03T10:03:42.644Z,8.23
2024-02-03T10:06:11.571Z,10.95
2024-02-03T10:08:38.542Z,10.73
2024-02-03T10:11:05.584Z,11.38
2024-02-03T10:13:34.376Z,10.20
2024-02-03T10:16:03.552Z,10.80
2024-02-03T10:18:34.790Z,10.00
2024-02-03T10:21:02.878Z,9.38
2024-02-03T10:23:30.924Z,9.25
2024-02-03T10:26:01.614Z,9.70
2024-02-03T10:28:29.068Z,9.02
2024-02-03T10:31:01.846Z,7.65
2024-02-03T10:33:29.120Z,6.82
2024-02-03T10:35:58.369Z,7.63
2024-02-03T10:38:25.302Z,7.07
2024-02-03T10:40:53.415Z,7.10
2024-02-03T10:43:23.698Z,6.25
2024-02-03T10:45:54.954Z,6.78
2024-02-03T10:48:26.770Z,7.30
2024-02-03T10:50:59.223Z,7.68
2024-02-03T10:53:31.407Z,7.47
2024-02-03T10:56:04.634Z,7.13
2024-02-03T10:58:33.031Z,8.07
2024-02-03T11:01:11.509Z,8.35
2024-02-03T11:03:41.330Z,8.93
2024-02-03T11:06:09.290Z,8.15
2024-02-03T11:08:36.943Z,8.77
2024-02-03T11:11:03.876Z,9.43
2024-02-03T11:13:31.641Z,8.90
2024-02-03T11:15:59.789Z,8.80
2024-02-03T11:18:28.912Z,8.98
2024-02-03T11:21:09.059Z,9.00
2024-02-03T11:23:36.797Z,9.52
2024-02-03T11:26:03.807Z,8.90
2024-02-03T11:28:34.851Z,9.07
2024-02-03T11:31:02.899Z,8.57
2024-02-03T11:33:32.427Z,9.23
2024-02-03T11:36:03.991Z,8.85
2024-02-03T11:38:30.809Z,9.13
2024-02-03T11:41:00.881Z,8.85
2024-02-03T11:43:29.397Z,8.85
2024-02-03T11:46:02.755Z,8.38
2024-02-03T11:48:29.996Z,9.13
2024-02-03T11:50:57.186Z,8.45
2024-02-03T11:53:27.666Z,8.65
2024-02-03T11:55:55.484Z,9.20
2024-02-03T11:58:22.497Z,8.45
2024-02-03T12:00:49.573Z,7.95
2024-02-03T12:03:16.642Z,8.23
2024-02-03T12:05:45.282Z,8.65
2024-02-03T12:08:12.781Z,8.18
2024-02-03T12:10:39.788Z,8.30
2024-02-03T12:13:07.536Z,8.60
2024-02-03T12:15:35.205Z,8.27
2024-02-03T12:18:03.247Z,9.20
2024-02-03T12:20:30.269Z,8.82
2024-02-03T12:22:57.556Z,9.23
2024-02-03T12:25:24.402Z,8.98
2024-02-03T12:27:51.711Z,9.02
2024-02-03T12:30:20.144Z,8.57
2024-02-03T12:32:47.852Z,8.52
2024-02-03T12:35:16.122Z,8.93
2024-02-03T12:37:43.387Z,8.55
2024-02-03T12:40:11.588Z,8.75
2024-02-03T12:42:38.578Z,8.32
2024-02-03T12:45:07.384Z,8.73
2024-02-03T12:47:37.416Z,8.07
2024-02-03T12:50:04.873Z,7.55
2024-02-03T12:52:32.016Z,7.30
2024-02-03T12:54:58.894Z,7.55
2024-02-03T12:57:25.838Z,7.43
2024-02-03T12:59:52.745Z,7.20
2024-02-03T13:02:19.915Z,7.72
2024-02-03T13:04:49.177Z,7.15
2024-02-03T13:07:16.775Z,7.57
2024-02-03T13:09:44.303Z,6.97
2024-02-03T13:12:11.270Z,7.50
2024-02-03T13:14:38.266Z,7.22
2024-02-03T13:17:05.562Z,6.80
2024-02-03T13:19:32.492Z,6.85
2024-02-03T13:22:00.195Z,6.43
2024-02-03T13:24:27.233Z,6.50
2024-02-03T13:26:54.135Z,6.28
2024-02-03T13:29:21.007Z,6.85
2024-02-03T13:31:48.081Z,6.82
2024-02-03T13:34:18.708Z,6.60
2024-02-03T13:36:47.853Z,6.32
2024-02-03T13:39:18.085Z,6.32
2024-02-03T13:41:44.942Z,5.63
2024-02-03T13:44:11.742Z,5.93
2024-02-03T13:46:38.563Z,6.00
2024-02-03T13:49:05.995Z,5.55
2024-02-03T13:51:35.788Z,5.85
2024-02-03T13:54:03.610Z,6.00
2024-02-03T13:56:30.514Z,4.93
2024-02-03T13:58:57.470Z,5.00
2024-02-03T14:01:27.273Z,4.90
2024-02-03T14:03:54.366Z,4.85
2024-02-03T14:06:21.257Z,4.88
2024-02-03T14:08:48.091Z,4.90
2024-02-03T14:11:16.016Z,4.50
2024-02-03T14:13:43.161Z,4.20
2024-02-03T14:16:11.374Z,4.70
2024-02-03T14:18:38.429Z,4.90
2024-02-03T14:21:05.516Z,5.20
2024-02-03T14:23:35.190Z,4.45
2024-02-03T14:26:06.326Z,4.80
2024-02-03T14:28:34.366Z,5.55
2024-02-03T14:31:01.446Z,5.20
2024-02-03T14:33:28.938Z,5.97
2024-02-03T14:35:56.127Z,6.15
2024-02-03T14:38:23.615Z,5.68
2024-02-03T14:40:51.026Z,5.60
2024-02-03T14:43:17.892Z,5.93
2024-02-03T14:45:44.786Z,6.07
2024-02-03T14:48:11.672Z,6.20
2024-02-03T14:50:38.522Z,6.32
2024-02-03T14:53:06.428Z,6.47
2024-02-03T14:55:33.260Z,6.88
2024-02-03T14:58:00.061Z,6.90
2024-02-03T15:00:26.921Z,6.63
2024-02-03T15:02:53.760Z,6.95
2024-02-03T15:05:20.654Z,7.10
2024-02-03T15:07:48.284Z,7.18
2024-02-03T15:10:15.297Z,7.38
2024-02-03T15:12:42.143Z,7.57
2024-02-03T15:15:09.468Z,8.05
2024-02-03T15:17:36.670Z,8.30
2024-02-03T15:20:03.930Z,7.97
2024-02-03T15:22:31.090Z,8.07
2024-02-03T15:24:58.079Z,8.60
2024-02-03T15:27:25.063Z,8.90
2024-02-03T15:29:51.958Z,8.85
2024-02-03T15:32:20.657Z,8.80
2024-02-03T15:34:47.712Z,9.23
2024-02-03T15:37:14.695Z,9.07
2024-02-03T15:39:42.166Z,9.68
2024-02-03T15:42:09.155Z,10.75
2024-02-03T15:44:41.955Z,9.13
2024-02-03T15:47:14.161Z,9.63
2024-02-03T15:49:42.111Z,10.40
2024-02-03T15:52:09.108Z,9.40
2024-02-03T15:54:35.992Z,9.43
2024-02-03T15:57:03.012Z,9.45
2024-02-03T15:59:29.851Z,10.07
2024-02-03T16:01:56.823Z,9.93
2024-02-03T16:04:24.245Z,9.85
2024-02-03T16:06:51.747Z,9.25
2024-02-03T16:09:18.801Z,10.35
2024-02-03T16:11:45.861Z,10.00
2024-02-03T16:14:12.750Z,11.40
2024-02-03T16:16:39.694Z,11.43
2024-02-03T16:19:06.660Z,10.70
2024-02-03T16:21:33.630Z,10.10
2024-02-03T16:24:01.101Z,10.57
2024-02-03T16:26:28.246Z,13.38
2024-02-03T16:28:55.351Z,11.68
2024-02-03T16:31:22.273Z,10.82
2024-02-03T16:33:49.297Z,12.05
2024-02-03T16:36:16.260Z,12.20
2024-02-03T16:38:43.072Z,12.93
2024-02-03T16:41:09.852Z,19.17
2024-02-03T16:43:36.672Z,15.25
2024-02-03T16:46:03.590Z,14.45
2024-02-03T16:48:30.462Z,12.02
2024-02-03T16:50:57.368Z,13.60
2024-02-03T16:53:24.149Z,13.35
2024-02-03T16:55:51.052Z,12.50
2024-02-03T16:58:17.820Z,12.25
2024-02-03T17:00:44.705Z,12.45
2024-02-03T17:03:11.979Z,12.07
2024-02-03T17:05:41.783Z,12.82
2024-02-03T17:08:10.517Z,11.27
2024-02-03T17:10:37.319Z,13.38
2024-02-03T17:13:04.403Z,14.45
2024-02-03T17:15:31.332Z,13.38
2024-02-03T17:17:58.388Z,13.35
2024-02-03T17:20:27.308Z,13.63
2024-02-03T17:22:54.492Z,13.13
2024-02-03T17:25:21.687Z,12.43
2024-02-03T17:27:49.140Z,13.18
2024-02-03T17:30:16.785Z,13.88
2024-02-03T17:32:43.708Z,21.02
2024-02-03T17:35:10.613Z,17.45
2024-02-03T17:37:37.580Z,15.82
2024-02-03T17:40:04.684Z,14.75
2024-02-03T17:42:31.513Z,14.40
2024-02-03T17:44:58.641Z,15.43
2024-02-03T17:47:26.365Z,14.38
2024-02-03T17:49:53.380Z,14.07
2024-02-03T17:52:20.242Z,12.32
2024-02-03T17:54:48.979Z,11.93
2024-02-03T17:57:15.951Z,12.07
2024-02-03T17:59:42.945Z,12.45
2024-02-03T18:02:09.993Z,12.98
2024-02-03T18:04:36.890Z,11.50
2024-02-03T18:07:04.099Z,12.82
2024-02-03T18:09:30.963Z,12.77
2024-02-03T18:11:57.740Z,10.77
2024-02-03T18:14:24.771Z,10.77
2024-02-03T18:16:51.614Z,9.90
2024-02-03T18:19:18.518Z,13.80
2024-02-03T18:21:45.438Z,11.52
2024-02-03T18:24:12.282Z,11.30
2024-02-03T18:26:39.102Z,12.35
2024-02-03T18:29:05.990Z,12.93
2024-02-03T18:31:32.892Z,12.43
2024-02-03T18:33:59.880Z,13.55
2024-02-03T18:36:26.803Z,13.00
2024-02-03T18:38:53.675Z,12.85
2024-02-03T18:41:20.544Z,13.25
2024-02-03T18:43:47.325Z,13.13
2024-02-03T18:46:14.177Z,13.07
2024-02-03T18:48:41.516Z,13.35
2024-02-03T18:51:08.549Z,14.85
2024-02-03T18:53:35.708Z,16.05
2024-02-03T18:56:02.557Z,16.92
2024-02-03T18:58:30.295Z,18.20
2024-02-03T19:00:57.848Z,18.13
2024-02-03T19:03:24.864Z,20.42
2024-02-03T19:05:51.768Z,19.10
2024-02-03T19:08:18.821Z,17.65
2024-02-03T19:10:45.638Z,17.50
2024-02-03T19:13:12.478Z,16.08
2024-02-03T19:15:39.452Z,17.70
2024-02-03T19:18:08.511Z,17.25
2024-02-03T19:20:35.427Z,16.88
2024-02-03T19:23:02.233Z,18.08
2024-02-03T19:25:29.125Z,17.23
2024-02-03T19:27:57.122Z,16.08
2024-02-03T19:30:24.116Z,17.10
2024-02-03T19:32:50.926Z,16.55
2024-02-03T19:35:18.911Z,15.85
2024-02-03T19:37:45.727Z,17.33
2024-02-03T19:40:13.320Z,20.05
2024-02-03T19:42:42.572Z,17.15
2024-02-03T19:45:10.137Z,18.05
2024-02-03T19:47:37.039Z,19.98
2024-02-03T19:50:05.730Z,19.60
2024-02-03T19:52:33.437Z,18.90
2024-02-03T19:55:00.408Z,18.77
2024-02-03T19:57:27.339Z,21.02
2024-02-03T19:59:54.319Z,19.80
2024-02-03T20:02:21.165Z,19.33
2024-02-03T20:04:48.250Z,18.42
2024-02-03T20:07:16.090Z,18.60
2024-02-03T20:09:43.611Z,17.65
2024-02-03T20:12:10.678Z,18.63
2024-02-03T20:14:39.737Z,20.00
2024-02-03T20:17:06.573Z,20.20
2024-02-03T20:19:33.651Z,19.15
2024-02-03T20:22:00.842Z,20.38
2024-02-03T20:24:28.985Z,18.90
2024-02-03T20:26:56.388Z,19.20
2024-02-03T20:29:23.345Z,19.02
2024-02-03T20:31:50.220Z,18.13
2024-02-03T20:34:19.015Z,18.65
2024-02-03T20:36:47.577Z,21.40
2024-02-03T20:39:15.421Z,18.92
2024-02-03T20:41:45.722Z,22.27
2024-02-03T20:44:14.277Z,20.88
2024-02-03T20:46:41.454Z,20.92
2024-02-03T20:49:08.565Z,21.13
2024-02-03T20:51:35.683Z,20.20
2024-02-03T20:54:02.618Z,21.25
2024-02-03T20:56:29.409Z,20.63
2024-02-03T20:58:56.320Z,20.35
2024-02-03T21:01:24.199Z,19.38
2024-02-03T21:03:51.295Z,20.80
2024-02-03T21:06:18.907Z,19.13
2024-02-03T21:08:45.871Z,19.23
2024-02-03T21:11:13.068Z,19.23
2024-02-03T21:13:40.461Z,18.73
2024-02-03T21:16:07.919Z,19.23
2024-02-03T21:18:34.847Z,18.63
2024-02-03T21:21:02.071Z,18.98
2024-02-03T21:23:29.020Z,19.50
2024-02-03T21:25:56.002Z,18.67
2024-02-03T21:28:22.833Z,19.17
2024-02-03T21:30:49.788Z,17.80
2024-02-03T21:33:16.805Z,17.80
2024-02-03T21:35:43.782Z,17.33
2024-02-03T21:38:10.664Z,16.17
2024-02-03T21:40:37.553Z,17.88
2024-02-03T21:43:05.066Z,17.23
2024-02-03T21:45:32.063Z,16.55
2024-02-03T21:47:59.214Z,17.23
2024-02-03T21:50:26.155Z,17.67
2024-02-03T21:52:52.992Z,17.50
2024-02-03T21:55:19.840Z,17.63
2024-02-03T21:57:46.675Z,17.23
2024-02-03T22:00:14.087Z,18.63
2024-02-03T22:02:40.893Z,17.50
2024-02-03T22:05:08.775Z,17.35
2024-02-03T22:07:35.706Z,18.42
2024-02-03T22:10:02.705Z,17.40
2024-02-03T22:12:30.322Z,19.30
2024-02-03T22:14:57.161Z,17.33
2024-02-03T22:17:23.983Z,16.77
2024-02-03T22:19:51.054Z,18.00
2024-02-03T22:22:17.913Z,18.15
2024-02-03T22:24:44.845Z,18.10
2024-02-03T22:27:11.664Z,16.15
2024-02-03T22:29:38.463Z,17.42
2024-02-03T22:32:05.662Z,16.42
2024-02-03T22:34:32.659Z,16.70
2024-02-03T22:36:59.655Z,16.98
2024-02-03T22:39:26.557Z,17.73
2024-02-03T22:41:58.152Z,17.23
2024-02-03T22:44:25.141Z,16.88
2024-02-03T22:46:51.995Z,18.65
2024-02-03T22:49:18.830Z,18.00
2024-02-03T22:51:45.690Z,17.83
2024-02-03T22:54:12.563Z,17.50
2024-02-03T22:56:39.375Z,17.00
2024-02-03T22:59:06.203Z,16.27
2024-02-03T23:01:34.014Z,17.73
2024-02-03T23:04:01.074Z,19.85
2024-02-03T23:06:31.309Z,22.08
2024-02-03T23:08:59.233Z,23.42
2024-02-03T23:11:27.918Z,22.98
2024-02-03T23:13:54.752Z,21.83
2024-02-03T23:16:21.587Z,21.77
2024-02-03T23:18:48.504Z,21.48
2024-02-03T23:21:17.129Z,21.42
2024-02-03T23:23:44.353Z,21.02
2024-02-03T23:26:11.776Z,19.83
2024-02-03T23:28:39.233Z,20.15
2024-02-03T23:31:06.251Z,19.20
2024-02-03T23:33:37.578Z,19.27
2024-02-03T23:36:05.150Z,18.90
2024-02-03T23:38:32.063Z,19.60
2024-02-03T23:40:59.769Z,20.50
2024-02-03T23:43:27.384Z,20.45
2024-02-03T23:45:54.297Z,21.92
2024-02-03T23:48:21.368Z,19.38
2024-02-03T23:50:48.498Z,18.33
2024-02-03T23:53:16.417Z,18.63
2024-02-03T23:55:43.861Z,19.35
2024-02-03T23:58:10.855Z,19.00
